Time;durP1;ratioP1;P1;durP2;ratioP2;P2;SDS_P1;SDS_P2;PMS_P1;PMS_P2;Temp;Humidity;BMP_temperature;BMP_pressure;BME280_temperature;BME280_humidity;BME280_pressure;Samples;Min_cycle;Max_cycle;Signal;HPM_P1;HPM_P2
2023/06/25 00:00:35;;;;;;;16.00;12.57;;;;;;;15.43;100.00;100902.25;5112106;27;20482;-74
2023/06/25 00:03:00;;;;;;;19.60;13.32;;;;;;;15.44;100.00;100909.59;5094242;28;20072;-74
2023/06/25 00:05:26;;;;;;;18.50;12.45;;;;;;;15.39;100.00;100914.00;5111007;28;20027;-74
2023/06/25 00:07:51;;;;;;;21.13;13.50;;;;;;;15.26;100.00;100902.13;5112202;28;20024;-73
2023/06/25 00:10:18;;;;;;;18.45;12.40;;;;;;;15.22;100.00;100907.31;5110615;28;20153;-74
2023/06/25 00:12:43;;;;;;;19.55;12.80;;;;;;;15.18;100.00;100915.38;5113064;28;20085;-73
2023/06/25 00:15:10;;;;;;;16.63;11.82;;;;;;;15.08;100.00;100908.22;5114447;28;20039;-73
2023/06/25 00:17:36;;;;;;;18.30;12.48;;;;;;;15.09;100.00;100922.13;5097367;28;20031;-73
2023/06/25 00:20:02;;;;;;;17.35;12.18;;;;;;;15.09;100.00;100912.69;5114988;28;20387;-73
2023/06/25 00:22:27;;;;;;;22.60;12.73;;;;;;;15.13;100.00;100914.03;5114844;28;20043;-74
2023/06/25 00:24:53;;;;;;;19.00;12.57;;;;;;;15.12;100.00;100912.47;5115871;28;20107;-73
2023/06/25 00:27:19;;;;;;;19.77;12.45;;;;;;;15.08;100.00;100916.88;5115896;28;20081;-73
2023/06/25 00:29:45;;;;;;;19.20;12.48;;;;;;;15.09;100.00;100919.25;5114685;28;20032;-72
2023/06/25 00:32:13;;;;;;;20.77;12.50;;;;;;;15.02;100.00;100913.94;5115782;28;20524;-73
2023/06/25 00:34:41;;;;;;;18.63;11.95;;;;;;;14.94;100.00;100903.41;5115818;28;20038;-73
2023/06/25 00:37:16;;;;;;;18.52;12.75;;;;;;;14.93;100.00;100919.06;5116014;28;20076;-73
2023/06/25 00:39:46;;;;;;;17.50;12.05;;;;;;;14.91;100.00;100913.84;5114279;28;20051;-73
2023/06/25 00:42:12;;;;;;;18.02;12.93;;;;;;;14.92;100.00;100914.66;5114698;28;20059;-73
2023/06/25 00:44:40;;;;;;;16.52;12.30;;;;;;;14.93;100.00;100916.19;5113706;27;20074;-74
2023/06/25 00:47:16;;;;;;;18.92;12.20;;;;;;;14.90;100.00;100909.38;5095560;28;20035;-73
2023/06/25 00:49:44;;;;;;;19.27;12.88;;;;;;;14.87;100.00;100910.41;5113438;28;20097;-73
2023/06/25 00:52:11;;;;;;;17.23;12.32;;;;;;;14.84;100.00;100905.66;5112122;28;20047;-73
2023/06/25 00:54:40;;;;;;;18.65;12.20;;;;;;;14.79;100.00;100912.94;5113612;27;20484;-72
2023/06/25 00:57:06;;;;;;;17.08;12.18;;;;;;;14.70;100.00;100897.94;5112554;28;20352;-74
2023/06/25 00:59:33;;;;;;;16.45;12.10;;;;;;;14.76;100.00;100910.28;5115415;28;20070;-72
2023/06/25 01:02:10;;;;;;;17.92;12.63;;;;;;;14.75;100.00;100917.34;5114052;28;20115;-74
2023/06/25 01:04:42;;;;;;;22.08;13.00;;;;;;;14.71;100.00;100916.78;5115509;28;20036;-72
2023/06/25 01:07:17;;;;;;;16.95;11.52;;;;;;;14.66;100.00;100903.13;5115538;28;20031;-73
2023/06/25 01:09:45;;;;;;;16.38;12.98;;;;;;;14.63;100.00;100913.53;5112922;28;20034;-73
2023/06/25 01:12:10;;;;;;;22.00;13.25;;;;;;;14.61;100.00;100919.03;5114987;28;20123;-73
2023/06/25 01:14:35;;;;;;;21.00;13.32;;;;;;;14.63;100.00;100915.63;5114884;28;20107;-73
2023/06/25 01:17:01;;;;;;;23.55;13.52;;;;;;;14.58;100.00;100904.81;5115224;28;20023;-73
2023/06/25 01:19:29;;;;;;;18.48;12.90;;;;;;;14.62;100.00;100900.47;5115048;28;20486;-72
2023/06/25 01:21:59;;;;;;;21.23;12.70;;;;;;;14.60;100.00;100902.28;5113934;28;20079;-72
2023/06/25 01:24:28;;;;;;;18.20;12.57;;;;;;;14.53;100.00;100902.72;5114926;28;20112;-74
2023/06/25 01:26:55;;;;;;;16.90;12.10;;;;;;;14.52;100.00;100899.03;5096487;28;20020;-72
2023/06/25 01:29:21;;;;;;;20.13;13.00;;;;;;;14.50;100.00;100898.75;5113229;28;20188;-74
2023/06/25 01:31:46;;;;;;;15.27;11.98;;;;;;;14.48;100.00;100900.56;5114914;28;20050;-73
2023/06/25 01:34:12;;;;;;;18.30;13.45;;;;;;;14.48;100.00;100889.06;5113523;28;20456;-73
2023/06/25 01:36:40;;;;;;;21.73;13.50;;;;;;;14.48;100.00;100881.19;5114738;28;20027;-72
2023/06/25 01:39:09;;;;;;;21.75;13.05;;;;;;;14.52;100.00;100895.38;5114376;28;20092;-72
2023/06/25 01:41:35;;;;;;;20.02;13.32;;;;;;;14.43;100.00;100890.53;5114401;28;20134;-73
2023/06/25 01:44:00;;;;;;;19.63;14.05;;;;;;;14.46;100.00;100889.56;5112946;28;20046;-73
2023/06/25 01:46:25;;;;;;;18.92;13.00;;;;;;;14.44;100.00;100886.38;5114567;28;20039;-74
2023/06/25 01:48:51;;;;;;;;;;;;;;;14.49;100.00;100885.66;5113438;28;20402;-71
2023/06/25 01:51:16;;;;;;;19.13;12.70;;;;;;;14.48;100.00;100889.06;5114515;27;19907;-72
2023/06/25 01:53:41;;;;;;;18.90;12.80;;;;;;;14.43;100.00;100891.34;5112665;28;20028;-74
2023/06/25 01:56:07;;;;;;;20.73;13.25;;;;;;;14.40;100.00;100895.22;5112125;28;20035;-73
2023/06/25 01:58:32;;;;;;;19.50;12.57;;;;;;;14.34;100.00;100884.94;5111797;28;20480;-73
2023/06/25 02:00:57;;;;;;;19.73;13.63;;;;;;;14.35;100.00;100889.41;5111807;28;20043;-73
2023/06/25 02:03:23;;;;;;;21.25;13.40;;;;;;;14.37;100.00;100881.88;5110515;28;20035;-74
2023/06/25 02:05:48;;;;;;;19.80;13.80;;;;;;;14.34;100.00;100882.88;5111782;28;20028;-74
2023/06/25 02:08:13;;;;;;;18.00;12.82;;;;;;;14.32;100.00;100884.69;5112411;28;20041;-74
2023/06/25 02:10:39;;;;;;;17.98;13.25;;;;;;;14.25;100.00;100890.84;5111693;28;20440;-73
2023/06/25 02:13:04;;;;;;;18.20;13.30;;;;;;;14.19;100.00;100887.91;5113479;28;20081;-73
2023/06/25 02:15:32;;;;;;;24.23;13.50;;;;;;;14.16;100.00;100886.06;5095502;28;20069;-73
2023/06/25 02:17:57;;;;;;;19.85;13.32;;;;;;;14.02;100.00;100886.94;5113987;28;20124;-73
2023/06/25 02:20:23;;;;;;;20.60;12.93;;;;;;;13.83;100.00;100880.69;5113997;28;20028;-73
2023/06/25 02:22:48;;;;;;;27.23;13.57;;;;;;;13.87;100.00;100883.34;5112758;28;20466;-73
2023/06/25 02:25:14;;;;;;;19.42;12.88;;;;;;;13.87;100.00;100889.88;5112366;28;20100;-73
2023/06/25 02:27:39;;;;;;;17.70;12.70;;;;;;;13.85;100.00;100885.91;5113496;28;20127;-73
2023/06/25 02:30:05;;;;;;;24.85;12.75;;;;;;;13.84;100.00;100887.97;5110726;28;20046;-73
2023/06/25 02:32:30;;;;;;;23.60;13.63;;;;;;;13.82;100.00;100887.72;5112370;28;20039;-73
2023/06/25 02:34:56;;;;;;;23.20;12.93;;;;;;;13.79;100.00;100885.81;5111116;28;20027;-73
2023/06/25 02:37:21;;;;;;;19.45;12.43;;;;;;;13.78;100.00;100889.22;5113147;28;20027;-73
2023/06/25 02:39:46;;;;;;;18.58;13.07;;;;;;;13.79;100.00;100891.56;5112090;28;20042;-72
2023/06/25 02:42:12;;;;;;;21.95;13.05;;;;;;;13.76;100.00;100891.78;5113282;28;20059;-73
2023/06/25 02:44:37;;;;;;;20.65;13.48;;;;;;;13.77;100.00;100891.28;5112180;28;20410;-73
2023/06/25 02:47:03;;;;;;;24.42;13.85;;;;;;;13.72;100.00;100886.25;5112833;28;20037;-73
2023/06/25 02:49:28;;;;;;;22.38;12.75;;;;;;;13.72;100.00;100889.13;5111492;28;20015;-72
2023/06/25 02:51:53;;;;;;;22.05;13.07;;;;;;;13.67;100.00;100880.44;5111384;28;20440;-74
2023/06/25 02:54:19;;;;;;;21.88;13.35;;;;;;;13.64;100.00;100867.09;5111214;28;20038;-73
2023/06/25 02:56:44;;;;;;;23.70;13.55;;;;;;;13.72;100.00;100882.59;5111394;28;20020;-72
2023/06/25 02:59:10;;;;;;;20.50;13.40;;;;;;;13.75;100.00;100881.59;5111259;28;20495;-72
2023/06/25 03:01:35;;;;;;;26.55;14.20;;;;;;;13.88;100.00;100879.16;5110827;28;20124;-72
2023/06/25 03:04:00;;;;;;;24.25;13.35;;;;;;;14.00;100.00;100880.88;5113012;28;20083;-73
2023/06/25 03:06:26;;;;;;;19.67;13.95;;;;;;;13.93;100.00;100882.13;5113075;28;20357;-72
2023/06/25 03:08:51;;;;;;;18.90;12.00;;;;;;;13.95;100.00;100878.72;5113361;28;20135;-73
2023/06/25 03:11:16;;;;;;;20.02;13.02;;;;;;;14.06;100.00;100883.84;5112924;28;20350;-74
2023/06/25 03:13:42;;;;;;;18.67;13.25;;;;;;;14.13;100.00;100880.53;5111778;28;20031;-72
2023/06/25 03:16:07;;;;;;;20.58;12.23;;;;;;;14.17;100.00;100881.91;5113002;28;20026;-74
2023/06/25 03:18:32;;;;;;;19.00;12.60;;;;;;;14.18;100.00;100879.81;5112974;28;20487;-73
2023/06/25 03:20:58;;;;;;;17.63;11.38;;;;;;;14.14;100.00;100877.13;5111703;28;20052;-73
2023/06/25 03:23:23;;;;;;;18.48;12.23;;;;;;;14.16;100.00;100877.44;5115050;28;20427;-74
2023/06/25 03:25:49;;;;;;;18.10;11.75;;;;;;;14.14;100.00;100874.25;5115991;28;20080;-72
2023/06/25 03:28:14;;;;;;;17.73;12.88;;;;;;;14.16;100.00;100870.91;5116957;28;20391;-74
2023/06/25 03:30:39;;;;;;;17.73;12.43;;;;;;;14.11;100.00;100860.91;5116883;28;20031;-72
2023/06/25 03:33:05;;;;;;;20.70;11.63;;;;;;;14.19;100.00;100864.13;5116948;28;20059;-73
2023/06/25 03:35:30;;;;;;;19.10;11.57;;;;;;;14.12;100.00;100862.50;5117370;28;20032;-72
2023/06/25 03:37:56;;;;;;;22.65;12.27;;;;;;;14.25;100.00;100874.41;5116891;28;20019;-74
2023/06/25 03:40:21;;;;;;;16.88;11.05;;;;;;;14.26;100.00;100873.13;5116967;28;20028;-73
2023/06/25 03:42:46;;;;;;;18.38;11.60;;;;;;;14.33;100.00;100884.16;5116547;28;20015;-74
2023/06/25 03:45:15;;;;;;;18.77;11.73;;;;;;;14.31;100.00;100869.53;5115595;28;20417;-72
2023/06/25 03:47:40;;;;;;;17.77;11.45;;;;;;;14.39;100.00;100882.16;5116808;27;20101;-74
2023/06/25 03:50:06;;;;;;;18.13;12.02;;;;;;;14.37;100.00;100881.88;5116597;28;20036;-73
2023/06/25 03:52:32;;;;;;;18.77;12.48;;;;;;;14.37;100.00;100872.47;5116558;28;20032;-72
2023/06/25 03:54:57;;;;;;;20.90;12.32;;;;;;;14.37;100.00;100875.34;5116013;28;20023;-72
2023/06/25 03:57:23;;;;;;;20.02;11.18;;;;;;;14.41;100.00;100876.69;5116366;27;20380;-73
2023/06/25 03:59:49;;;;;;;20.45;11.52;;;;;;;14.42;100.00;100866.78;5116660;28;20027;-73
2023/06/25 04:02:14;;;;;;;21.08;12.82;;;;;;;14.43;100.00;100862.56;5116480;28;20474;-73
2023/06/25 04:04:39;;;;;;;18.90;11.00;;;;;;;14.54;100.00;100869.75;5097844;28;20127;-73
2023/06/25 04:07:06;;;;;;;20.98;11.30;;;;;;;14.55;100.00;100869.25;5116347;28;20031;-73
2023/06/25 04:09:33;;;;;;;18.27;11.50;;;;;;;14.58;100.00;100865.38;5115126;28;20024;-72
2023/06/25 04:11:59;;;;;;;20.05;11.65;;;;;;;14.66;100.00;100855.00;5115876;28;20127;-71
2023/06/25 04:14:25;;;;;;;21.40;12.15;;;;;;;14.64;100.00;100856.81;5116954;27;20089;-72
2023/06/25 04:16:52;;;;;;;21.10;11.15;;;;;;;14.71;100.00;100867.88;5115674;28;20030;-72
2023/06/25 04:19:18;;;;;;;17.15;11.23;;;;;;;14.77;100.00;100855.09;5115352;28;20027;-73
2023/06/25 04:21:45;;;;;;;19.23;12.27;;;;;;;14.82;100.00;100865.88;5116580;28;20046;-73
2023/06/25 04:24:12;;;;;;;17.88;11.50;;;;;;;14.90;100.00;100860.47;5115374;28;20092;-73
2023/06/25 04:26:38;;;;;;;17.52;11.15;;;;;;;14.96;100.00;100867.06;5115132;28;20436;-72
2023/06/25 04:29:05;;;;;;;16.08;11.18;;;;;;;15.06;100.00;100874.22;5116551;28;20036;-76
2023/06/25 04:31:31;;;;;;;15.95;11.20;;;;;;;15.12;100.00;100865.63;5116930;28;20043;-79
2023/06/25 04:33:57;;;;;;;16.67;11.00;;;;;;;15.21;100.00;100865.44;5113551;28;20035;-77
2023/06/25 04:36:22;;;;;;;19.38;11.00;;;;;;;15.28;100.00;100862.88;5116687;28;20040;-77
2023/06/25 04:39:00;;;;;;;14.57;11.25;;;;;;;15.41;100.00;100870.28;5116285;28;20024;-78
2023/06/25 04:41:25;;;;;;;15.18;10.13;;;;;;;15.48;100.00;100866.91;5116314;28;20019;-78
2023/06/25 04:43:53;;;;;;;13.27;9.85;;;;;;;15.44;100.00;100866.38;5116120;28;20038;-76
2023/06/25 04:46:20;;;;;;;17.67;10.10;;;;;;;15.52;100.00;100870.34;5116319;28;20107;-78
2023/06/25 04:48:50;;;;;;;18.63;11.85;;;;;;;15.63;100.00;100871.25;5114792;28;20032;-78
2023/06/25 04:51:18;;;;;;;16.48;10.82;;;;;;;15.65;100.00;100868.66;5115875;28;20039;-77
2023/06/25 04:53:43;;;;;;;16.60;10.38;;;;;;;15.74;100.00;100863.97;5114805;28;20032;-78
2023/06/25 04:56:10;;;;;;;18.77;11.50;;;;;;;15.84;100.00;100862.47;5116039;28;20114;-78
2023/06/25 04:58:35;;;;;;;20.02;9.93;;;;;;;15.95;100.00;100863.31;5115709;28;20031;-77
2023/06/25 05:01:09;;;;;;;16.85;10.02;;;;;;;16.06;100.00;100856.78;5114707;28;20330;-77
2023/06/25 05:03:36;;;;;;;15.93;10.05;;;;;;;16.18;100.00;100855.53;5116037;28;20043;-76
2023/06/25 05:06:02;;;;;;;13.15;9.20;;;;;;;16.31;100.00;100855.81;5115539;28;20039;-76
2023/06/25 05:08:29;;;;;;;14.52;9.35;;;;;;;16.43;100.00;100853.78;5114629;28;20126;-77
2023/06/25 05:10:55;;;;;;;19.35;11.18;;;;;;;16.54;100.00;100857.50;5115156;27;20023;-76
2023/06/25 05:13:21;;;;;;;16.88;10.85;;;;;;;16.57;100.00;100854.88;5115846;28;20510;-76
2023/06/25 05:15:48;;;;;;;19.23;10.45;;;;;;;16.59;100.00;100858.03;5115783;28;20106;-76
2023/06/25 05:18:13;;;;;;;16.90;9.98;;;;;;;16.57;100.00;100860.66;5115527;28;20070;-78
2023/06/25 05:20:40;;;;;;;14.82;9.27;;;;;;;16.55;100.00;100847.53;5115789;28;20063;-74
2023/06/25 05:23:21;;;;;;;14.48;9.57;;;;;;;16.66;100.00;100855.41;5117304;27;20027;-72
2023/06/25 05:25:47;;;;;;;21.75;8.75;;;;;;;16.77;100.00;100845.97;5115754;28;20020;-70
2023/06/25 05:28:15;;;;;;;13.35;8.75;;;;;;;16.84;100.00;100854.13;5115524;28;20020;-72
2023/06/25 05:30:42;;;;;;;12.68;8.98;;;;;;;16.76;100.00;100853.84;5115673;28;20034;-70
2023/06/25 05:33:08;;;;;;;13.07;8.55;;;;;;;16.79;100.00;100855.72;5115414;27;20034;-71
2023/06/25 05:35:34;;;;;;;11.88;8.27;;;;;;;16.90;100.00;100857.78;5114277;28;20023;-71
2023/06/25 05:38:00;;;;;;;16.63;8.73;;;;;;;16.94;100.00;100856.22;5113843;28;20166;-70
2023/06/25 05:40:28;;;;;;;15.45;8.50;;;;;;;17.14;100.00;100860.19;5115266;28;20132;-71
2023/06/25 05:42:55;;;;;;;13.52;8.48;;;;;;;17.24;100.00;100853.59;5115035;28;20348;-72
2023/06/25 05:45:41;;;;;;;11.93;7.72;;;;;;;17.41;100.00;100853.59;5096021;28;20513;-71
2023/06/25 05:48:08;;;;;;;17.75;8.05;;;;;;;17.47;100.00;100857.28;5114833;28;20024;-69
2023/06/25 05:50:34;;;;;;;12.23;7.32;;;;;;;17.72;100.00;100855.41;5115100;28;20153;-70
2023/06/25 05:53:01;;;;;;;8.82;6.32;;;;;;;18.80;100.00;100844.34;5115202;28;20096;-70
2023/06/25 05:55:27;;;;;;;8.65;5.57;;;;;;;20.73;100.00;100844.88;5114761;28;20034;-72
2023/06/25 05:57:53;;;;;;;9.10;6.30;;;;;;;22.78;100.00;100834.25;5114899;28;20028;-71
2023/06/25 06:00:23;;;;;;;9.05;6.40;;;;;;;24.91;100.00;100841.59;5114705;28;20039;-71
2023/06/25 06:02:49;;;;;;;7.65;5.60;;;;;;;26.90;91.61;100837.75;5114658;28;20019;-71
2023/06/25 06:05:16;;;;;;;7.15;5.70;;;;;;;28.17;65.79;100845.28;5114656;28;20383;-70
2023/06/25 06:07:43;;;;;;;7.93;5.70;;;;;;;29.48;63.22;100844.44;5114976;27;20030;-70
2023/06/25 06:10:13;;;;;;;6.45;5.40;;;;;;;30.78;56.16;100854.56;5114870;28;20046;-73
2023/06/25 06:12:40;;;;;;;9.88;6.15;;;;;;;30.68;46.07;100863.44;5113200;28;20069;-73
2023/06/25 06:15:06;;;;;;;9.05;6.22;;;;;;;31.62;47.00;100857.06;5114702;28;20055;-73
2023/06/25 06:17:32;;;;;;;7.35;5.50;;;;;;;31.76;44.45;100860.28;5114784;28;20050;-75
2023/06/25 06:19:58;;;;;;;7.45;5.53;;;;;;;32.57;41.46;100881.50;5114715;28;20022;-74
2023/06/25 06:22:24;;;;;;;7.78;5.45;;;;;;;33.56;37.67;100868.78;5114022;28;20053;-73
2023/06/25 06:24:49;;;;;;;11.45;5.57;;;;;;;34.08;36.33;100880.22;5114740;28;20276;-74
2023/06/25 06:27:15;;;;;;;8.98;5.40;;;;;;;33.86;38.86;100873.69;5115172;28;20460;-76
2023/06/25 06:29:41;;;;;;;7.07;5.43;;;;;;;34.33;36.08;100851.41;5114210;28;20042;-74
2023/06/25 06:32:09;;;;;;;6.50;5.50;;;;;;;34.71;37.41;100867.78;5114580;28;20380;-75
2023/06/25 06:34:43;;;;;;;7.60;5.38;;;;;;;35.46;35.12;100871.34;5114316;28;20478;-76
2023/06/25 06:37:09;;;;;;;6.80;4.90;;;;;;;36.20;31.66;100868.75;5114271;28;20023;-76
2023/06/25 06:39:35;;;;;;;7.93;5.20;;;;;;;36.83;28.81;100857.84;5114108;28;20061;-79
2023/06/25 06:42:02;;;;;;;6.25;5.35;;;;;;;37.05;30.21;100858.22;5113107;28;20034;-77
2023/06/25 06:44:28;;;;;;;7.80;5.70;;;;;;;36.20;29.29;100862.00;5114170;28;20024;-77
2023/06/25 06:46:54;;;;;;;5.88;5.18;;;;;;;36.60;30.59;100857.41;5114113;28;20031;-75
2023/06/25 06:49:19;;;;;;;6.07;5.15;;;;;;;37.13;30.06;100848.91;5095792;28;20030;-77
2023/06/25 06:51:46;;;;;;;8.70;5.40;;;;;;;37.28;26.81;100851.13;5112563;28;20027;-77
2023/06/25 06:54:14;;;;;;;5.65;4.40;;;;;;;37.91;25.85;100837.00;5113124;28;20107;-74
2023/06/25 06:56:41;;;;;;;5.88;5.05;;;;;;;38.29;26.76;100837.94;5112608;28;20106;-75
2023/06/25 06:59:07;;;;;;;7.45;4.55;;;;;;;37.47;26.45;100834.91;5112768;28;20030;-78
2023/06/25 07:01:34;;;;;;;5.28;4.50;;;;;;;38.07;27.07;100836.91;5114148;28;20073;-73
2023/06/25 07:04:00;;;;;;;5.35;3.70;;;;;;;38.44;24.83;100842.31;5112582;28;20039;-74
2023/06/25 07:06:26;;;;;;;5.03;4.53;;;;;;;38.31;26.17;100835.03;5113821;28;20019;-73
2023/06/25 07:08:56;;;;;;;7.10;4.10;;;;;;;37.70;26.68;100843.44;5113703;28;20033;-73
2023/06/25 07:11:21;;;;;;;5.03;3.85;;;;;;;38.03;26.33;100840.50;5113381;28;20032;-74
2023/06/25 07:13:47;;;;;;;8.75;4.30;;;;;;;36.56;27.90;100836.34;5113729;28;20068;-73
2023/06/25 07:16:13;;;;;;;7.82;4.13;;;;;;;34.91;29.73;100843.66;5125739;28;20148;-72
2023/06/25 07:18:38;;;;;;;4.45;3.90;;;;;;;34.78;28.79;100839.22;5134488;27;20387;-73
2023/06/25 07:21:05;;;;;;;5.25;3.28;;;;;;;36.09;24.55;100833.16;5121475;28;20475;-73
2023/06/25 07:23:40;;;;;;;5.50;3.60;;;;;;;36.90;25.06;100828.41;5112339;28;20027;-74
2023/06/25 07:26:06;;;;;;;4.43;3.85;;;;;;;38.11;23.78;100810.25;5113634;28;20111;-75
2023/06/25 07:28:32;;;;;;;6.82;3.60;;;;;;;38.72;22.68;100831.59;5113895;28;20384;-73
2023/06/25 07:30:57;;;;;;;4.05;3.00;;;;;;;39.25;21.40;100822.53;5113595;28;20475;-74
2023/06/25 07:33:24;;;;;;;6.10;3.10;;;;;;;35.50;26.19;100815.06;5113769;28;20043;-74
2023/06/25 07:35:49;;;;;;;3.72;3.30;;;;;;;34.63;26.75;100825.75;5112452;28;20479;-74
2023/06/25 07:38:16;;;;;;;3.90;3.45;;;;;;;35.86;26.50;100834.91;5113317;28;20070;-74
2023/06/25 07:40:42;;;;;;;3.58;3.28;;;;;;;36.52;25.37;100827.22;5112392;28;20035;-74
2023/06/25 07:43:08;;;;;;;3.72;3.25;;;;;;;37.80;24.08;100810.34;5113661;28;20043;-74
2023/06/25 07:45:35;;;;;;;4.32;3.08;;;;;;;37.84;22.80;100807.53;5113456;28;20180;-73
2023/06/25 07:48:01;;;;;;;4.47;2.80;;;;;;;38.27;23.67;100810.19;5113360;28;20046;-75
2023/06/25 07:50:29;;;;;;;2.75;2.55;;;;;;;37.28;25.04;100801.19;5113791;28;20023;-74
2023/06/25 07:52:56;;;;;;;2.97;2.70;;;;;;;38.49;21.71;100820.13;5113359;28;20020;-75
2023/06/25 07:55:39;;;;;;;3.10;2.80;;;;;;;38.70;21.53;100803.84;5113549;28;20028;-74
2023/06/25 07:58:07;;;;;;;3.72;2.92;;;;;;;39.89;20.99;100807.81;5113496;28;20028;-74
2023/06/25 08:00:34;;;;;;;3.10;2.90;;;;;;;36.99;24.03;100809.47;5112176;28;20027;-74
2023/06/25 08:03:00;;;;;;;3.38;2.88;;;;;;;38.01;22.31;100809.81;5111311;28;20118;-73
2023/06/25 08:05:25;;;;;;;3.58;2.55;;;;;;;38.03;21.60;100809.88;5113914;28;20102;-74
2023/06/25 08:07:53;;;;;;;3.83;2.78;;;;;;;39.00;20.66;100804.31;5112514;28;20357;-74
2023/06/25 08:10:20;;;;;;;2.88;2.60;;;;;;;39.55;19.18;100805.00;5114951;28;20072;-76
2023/06/25 08:12:45;;;;;;;3.63;2.90;;;;;;;39.55;20.09;100790.03;5115860;27;20112;-75
2023/06/25 08:15:12;;;;;;;4.47;2.78;;;;;;;39.11;19.67;100797.28;5112850;28;20433;-76
2023/06/25 08:17:38;;;;;;;3.17;2.88;;;;;;;38.20;20.59;100799.44;5116734;28;20027;-77
2023/06/25 08:20:05;;;;;;;3.90;2.70;;;;;;;37.53;22.06;100803.13;5115566;28;20122;-75
2023/06/25 08:22:31;;;;;;;4.90;2.63;;;;;;;37.13;21.59;100798.97;5098504;28;20039;-75
2023/06/25 08:24:57;;;;;;;3.78;2.45;;;;;;;37.05;22.81;100803.81;5116941;28;20024;-74
2023/06/25 08:27:24;;;;;;;3.47;2.60;;;;;;;37.44;22.91;100803.44;5116849;28;20034;-75
2023/06/25 08:29:50;;;;;;;3.45;2.90;;;;;;;37.18;22.48;100794.75;5115110;28;20023;-75
2023/06/25 08:32:17;;;;;;;4.43;2.83;;;;;;;37.98;22.27;100791.03;5116380;28;20019;-75
2023/06/25 08:34:49;;;;;;;5.00;3.15;;;;;;;38.89;21.23;100788.19;5116458;28;20077;-76
2023/06/25 08:37:15;;;;;;;4.15;3.03;;;;;;;39.98;19.48;100788.66;5116791;28;20047;-74
2023/06/25 08:39:42;;;;;;;6.00;2.83;;;;;;;39.73;19.34;100784.75;5116617;28;20042;-74
2023/06/25 08:42:07;;;;;;;3.20;2.90;;;;;;;37.91;20.79;100768.34;5116583;28;20526;-74
2023/06/25 08:44:35;;;;;;;3.47;3.17;;;;;;;37.37;22.27;100759.88;5115442;28;20032;-75
2023/06/25 08:47:18;;;;;;;2.80;2.60;;;;;;;36.82;24.52;100775.09;5115999;28;20040;-76
2023/06/25 08:49:46;;;;;;;3.45;3.15;;;;;;;36.36;23.95;100777.28;5116568;28;20119;-73
2023/06/25 08:52:12;;;;;;;3.80;2.92;;;;;;;35.57;24.65;100778.31;5097807;28;20444;-76
2023/06/25 08:54:37;;;;;;;7.95;3.20;;;;;;;34.67;24.64;100781.41;5114305;28;20048;-74
2023/06/25 08:57:04;;;;;;;5.53;3.50;;;;;;;34.32;27.43;100790.47;5116098;28;20027;-74
2023/06/25 08:59:36;;;;;;;3.30;3.00;;;;;;;34.24;26.19;100783.31;5115803;28;20035;-71
2023/06/25 09:02:01;;;;;;;3.33;2.90;;;;;;;34.23;27.86;100791.44;5115857;28;20032;-73
2023/06/25 09:04:28;;;;;;;4.05;3.60;;;;;;;34.36;27.81;100790.72;5116340;27;20115;-69
2023/06/25 09:06:55;;;;;;;3.60;2.88;;;;;;;34.17;27.26;100793.25;5116068;28;20052;-69
2023/06/25 09:09:20;;;;;;;4.05;3.17;;;;;;;33.58;27.08;100782.91;5115913;28;20032;-68
2023/06/25 09:11:46;;;;;;;5.18;3.90;;;;;;;32.76;28.39;100793.94;5115568;27;20044;-69
2023/06/25 09:14:13;;;;;;;4.88;3.20;;;;;;;32.30;30.05;100782.69;5115896;27;20060;-76
2023/06/25 09:16:54;;;;;;;4.22;3.47;;;;;;;32.62;30.91;100785.66;5114569;28;20034;-75
2023/06/25 09:19:21;;;;;;;;;;;;;;;32.91;30.70;100785.34;5116202;28;20532;-75
2023/06/25 09:21:47;;;;;;;3.97;3.58;;;;;;;33.36;30.70;100783.06;5115996;28;19908;-75
2023/06/25 09:24:16;;;;;;;3.75;3.30;;;;;;;33.76;29.19;100790.78;5114259;28;20483;-75
2023/06/25 09:26:48;;;;;;;4.07;3.53;;;;;;;33.60;28.97;100786.00;5114228;28;20031;-76
2023/06/25 09:29:13;;;;;;;5.25;3.85;;;;;;;33.46;29.26;100783.72;5115269;28;20547;-78
2023/06/25 09:31:42;;;;;;;4.97;3.78;;;;;;;33.62;29.87;100780.22;5115353;27;20083;-77
2023/06/25 09:34:08;;;;;;;4.70;3.80;;;;;;;33.54;29.98;100771.56;5077048;28;20032;-78
2023/06/25 09:36:42;;;;;;;4.38;3.70;;;;;;;33.37;30.17;100775.75;5077130;28;20035;-78
2023/06/25 09:39:09;;;;;;;3.70;3.28;;;;;;;33.18;30.05;100775.97;5099205;28;20020;-81
2023/06/25 09:41:37;;;;;;;4.80;3.67;;;;;;;32.71;32.55;100736.66;5096658;28;20044;-80
2023/06/25 09:44:04;;;;;;;4.78;3.55;;;;;;;32.45;31.23;100774.13;5077157;28;20050;-80
2023/06/25 09:46:34;;;;;;;4.15;3.10;;;;;;;31.87;31.82;100770.91;5092378;28;20111;-80
2023/06/25 09:49:03;;;;;;;4.18;3.50;;;;;;;31.23;33.57;100776.72;5092841;28;20077;-78
2023/06/25 09:52:01;;;;;;;4.10;3.13;;;;;;;31.24;33.35;100780.47;5091451;28;20028;-79
2023/06/25 09:54:27;;;;;;;5.72;3.67;;;;;;;30.88;33.21;100754.94;5090698;28;20036;-80
2023/06/25 09:56:53;;;;;;;3.55;3.25;;;;;;;30.66;32.15;100762.19;5090994;28;20035;-78
2023/06/25 09:59:19;;;;;;;7.43;3.85;;;;;;;30.27;33.07;100726.06;5074212;28;20016;-79
2023/06/25 10:01:45;;;;;;;5.72;4.15;;;;;;;30.15;34.69;100699.38;5091246;28;20020;-80
2023/06/25 10:04:10;;;;;;;3.33;3.03;;;;;;;30.02;34.62;100643.81;5090885;28;20030;-80
2023/06/25 10:06:36;;;;;;;5.28;3.95;;;;;;;30.62;35.73;100762.59;5091037;28;20486;-80
2023/06/25 10:09:03;;;;;;;4.20;3.42;;;;;;;30.58;35.27;100748.31;5090834;28;20032;-79
2023/06/25 10:11:28;;;;;;;3.83;3.42;;;;;;;30.53;36.20;100736.84;5109761;28;20052;-81
2023/06/25 10:13:54;;;;;;;5.80;3.70;;;;;;;30.78;35.57;100739.44;5093081;28;20069;-80
2023/06/25 10:16:20;;;;;;;5.57;3.85;;;;;;;30.88;35.12;100746.84;5092878;28;20047;-79
2023/06/25 10:18:46;;;;;;;3.85;3.40;;;;;;;31.11;33.79;100742.53;5093030;28;20036;-80
2023/06/25 10:21:20;;;;;;;3.92;3.30;;;;;;;31.02;34.02;100717.56;5094603;28;20043;-80
2023/06/25 10:24:00;;;;;;;4.88;3.38;;;;;;;31.01;34.92;100704.22;5075956;28;20035;-80
2023/06/25 10:26:29;;;;;;;4.45;4.03;;;;;;;30.85;35.34;100703.06;5092720;28;20024;-80
2023/06/25 10:28:56;;;;;;;4.07;2.97;;;;;;;30.99;34.54;100737.34;5075755;28;20028;-80
2023/06/25 10:31:21;;;;;;;4.45;3.65;;;;;;;30.67;34.73;100737.91;5093451;28;20036;-79
2023/06/25 10:33:47;;;;;;;4.22;3.00;;;;;;;30.32;35.06;100710.19;5092624;28;20361;-78
2023/06/25 10:36:12;;;;;;;4.38;3.33;;;;;;;30.22;36.00;100727.91;5093805;28;20469;-80
2023/06/25 10:38:39;;;;;;;4.90;3.80;;;;;;;29.63;36.29;100670.38;5093775;28;20425;-79
2023/06/25 10:41:04;;;;;;;3.42;3.13;;;;;;;29.75;36.13;100705.13;5093907;28;20032;-79
2023/06/25 10:43:30;;;;;;;4.28;3.60;;;;;;;29.74;37.16;100710.22;5092307;28;20153;-78
2023/06/25 10:45:56;;;;;;;4.03;3.63;;;;;;;29.76;36.59;100730.25;5092444;28;20019;-79
2023/06/25 10:48:23;;;;;;;5.68;3.63;;;;;;;29.41;36.59;100700.25;5092437;28;20055;-79
2023/06/25 10:50:50;;;;;;;3.55;3.25;;;;;;;29.40;37.62;100728.94;5075477;28;20020;-80
2023/06/25 10:53:17;;;;;;;3.70;3.22;;;;;;;28.94;38.14;100708.31;5092414;28;20122;-80
2023/06/25 10:55:44;;;;;;;5.90;3.67;;;;;;;28.92;39.47;100728.78;5092618;28;20031;-78
2023/06/25 10:58:09;;;;;;;7.85;3.78;;;;;;;28.63;38.98;100719.03;5092237;28;20107;-79
2023/06/25 11:00:35;;;;;;;4.13;3.25;;;;;;;28.38;39.45;100699.38;5092312;28;20067;-79
2023/06/25 11:03:01;;;;;;;5.78;3.63;;;;;;;27.87;41.52;100664.19;5092434;28;20111;-78
2023/06/25 11:05:42;;;;;;;4.85;3.10;;;;;;;27.98;42.79;100714.44;5092162;28;20024;-78
2023/06/25 11:08:08;;;;;;;6.43;3.40;;;;;;;27.49;46.80;100670.53;5092186;28;20020;-79
2023/06/25 11:10:36;;;;;;;4.25;3.30;;;;;;;27.51;46.48;100689.09;5091866;28;20036;-78
2023/06/25 11:13:02;;;;;;;3.92;3.05;;;;;;;26.68;46.22;100584.25;5074970;28;20085;-79